createdAt,value
2018-11-07T00:00:02.703Z,15.93
2018-11-07T00:02:31.536Z,16.33
2018-11-07T00:05:00.684Z,15.63
2018-11-07T00:07:29.314Z,19.70
2018-11-07T00:09:59.530Z,20.60
2018-11-07T00:12:28.962Z,18.53
2018-11-07T00:14:58.655Z,24.50
2018-11-07T00:17:27.866Z,20.90
2018-11-07T00:19:56.530Z,19.83
2018-11-07T00:22:25.613Z,24.70
2018-11-07T00:24:54.314Z,26.27
2018-11-07T00:27:23.033Z,22.60
2018-11-07T00:29:52.246Z,27.83
2018-11-07T00:32:20.876Z,27.20
2018-11-07T00:34:51.273Z,27.03
2018-11-07T00:37:19.991Z,25.10
2018-11-07T00:39:49.191Z,28.00
2018-11-07T00:42:19.700Z,25.53
2018-11-07T00:44:48.419Z,27.40
2018-11-07T00:47:17.047Z,27.93
2018-11-07T00:49:45.879Z,28.17
2018-11-07T00:52:16.014Z,31.53
2018-11-07T00:54:44.682Z,23.73
2018-11-07T00:57:14.054Z,28.33
2018-11-07T00:59:43.891Z,28.03
2018-11-07T01:02:13.460Z,24.17
2018-11-07T01:04:42.760Z,27.60
2018-11-07T01:07:11.443Z,27.87
2018-11-07T01:09:40.246Z,32.63
2018-11-07T01:12:09.582Z,27.70
2018-11-07T01:14:38.906Z,32.17
2018-11-07T01:17:07.576Z,25.67
2018-11-07T01:19:36.934Z,26.33
2018-11-07T01:22:06.294Z,26.13
2018-11-07T01:24:35.537Z,26.60
2018-11-07T01:27:04.913Z,29.90
2018-11-07T01:29:34.231Z,24.47
2018-11-07T01:32:04.036Z,27.47
2018-11-07T01:34:32.686Z,26.77
2018-11-07T01:37:01.287Z,26.40
2018-11-07T01:39:29.938Z,24.30
2018-11-07T01:41:59.258Z,23.90
2018-11-07T01:44:27.919Z,22.77
2018-11-07T01:46:56.560Z,24.70
2018-11-07T01:49:25.902Z,21.50
2018-11-07T01:51:55.031Z,22.27
2018-11-07T01:54:23.618Z,22.60
2018-11-07T01:56:52.287Z,22.20
2018-11-07T01:59:21.568Z,24.13
2018-11-07T02:01:50.226Z,24.83
2018-11-07T02:04:19.559Z,24.73
2018-11-07T02:06:49.342Z,23.67
2018-11-07T02:09:18.057Z,21.87
2018-11-07T02:11:46.847Z,22.07
2018-11-07T02:14:15.622Z,23.53
2018-11-07T02:16:44.922Z,23.40
2018-11-07T02:19:16.081Z,19.40
2018-11-07T02:21:45.939Z,22.60
2018-11-07T02:24:14.630Z,20.40
2018-11-07T02:26:43.834Z,20.90
2018-11-07T02:29:13.974Z,22.90
2018-11-07T02:31:44.783Z,21.13
2018-11-07T02:34:14.003Z,21.13
2018-11-07T02:36:43.000Z,21.93
2018-11-07T02:39:14.815Z,22.27
2018-11-07T02:41:45.249Z,22.30
2018-11-07T02:44:14.450Z,17.93
2018-11-07T02:46:43.679Z,22.07
2018-11-07T02:49:13.075Z,19.33
2018-11-07T02:51:42.986Z,21.20
2018-11-07T02:54:12.078Z,17.17
2018-11-07T02:56:41.361Z,18.67
2018-11-07T02:59:10.010Z,21.47
2018-11-07T03:01:39.808Z,21.43
2018-11-07T03:04:08.482Z,20.13
2018-11-07T03:06:37.098Z,23.17
2018-11-07T03:09:08.418Z,19.63
2018-11-07T03:11:38.597Z,18.23
2018-11-07T03:14:08.420Z,18.47
2018-11-07T03:16:37.438Z,20.27
2018-11-07T03:19:06.395Z,20.30
2018-11-07T03:21:35.026Z,18.63
2018-11-07T03:24:03.788Z,21.43
2018-11-07T03:26:32.390Z,18.83
2018-11-07T03:29:01.727Z,19.77
2018-11-07T03:31:30.443Z,19.90
2018-11-07T03:33:59.829Z,17.00
2018-11-07T03:36:28.527Z,17.13
2018-11-07T03:38:57.154Z,16.97
2018-11-07T03:41:25.974Z,16.73
2018-11-07T03:43:55.298Z,17.90
2018-11-07T03:46:24.539Z,17.60
2018-11-07T03:48:53.246Z,19.17
2018-11-07T03:51:21.970Z,18.43
2018-11-07T03:53:50.595Z,16.53
2018-11-07T03:56:19.287Z,16.87
2018-11-07T03:58:47.970Z,16.27
2018-11-07T04:01:16.692Z,13.23
2018-11-07T04:03:47.039Z,16.77
2018-11-07T04:06:15.770Z,13.40
2018-11-07T04:08:45.606Z,15.73
2018-11-07T04:11:14.979Z,10.83
2018-11-07T04:13:44.307Z,9.17
2018-11-07T04:16:12.967Z,11.30
2018-11-07T04:18:42.722Z,7.90
2018-11-07T04:21:11.538Z,8.07
2018-11-07T04:23:41.670Z,10.57
2018-11-07T04:26:10.950Z,11.40
2018-11-07T04:28:40.071Z,15.00
2018-11-07T04:31:09.389Z,16.80
2018-11-07T04:33:39.198Z,15.27
2018-11-07T04:36:08.124Z,15.50
2018-11-07T04:38:36.753Z,13.80
2018-11-07T04:41:06.087Z,14.77
2018-11-07T04:43:35.372Z,14.00
2018-11-07T04:46:04.084Z,14.93
2018-11-07T04:48:32.812Z,10.83
2018-11-07T04:51:02.157Z,13.20
2018-11-07T04:53:32.011Z,15.00
2018-11-07T04:56:00.634Z,14.70
2018-11-07T04:58:29.421Z,15.27
2018-11-07T05:00:58.226Z,14.90
2018-11-07T05:03:27.017Z,15.13
2018-11-07T05:05:56.155Z,15.63
2018-11-07T05:08:25.002Z,14.37
2018-11-07T05:10:53.695Z,13.43
2018-11-07T05:13:22.872Z,14.73
2018-11-07T05:15:52.555Z,10.27
2018-11-07T05:18:22.527Z,10.43
2018-11-07T05:20:51.854Z,12.70
2018-11-07T05:23:21.612Z,14.90
2018-11-07T05:25:50.303Z,11.10
2018-11-07T05:28:19.594Z,15.07
2018-11-07T05:30:48.220Z,11.30
2018-11-07T05:33:16.923Z,13.70
2018-11-07T05:35:46.176Z,13.70
2018-11-07T05:38:15.354Z,13.30
2018-11-07T05:40:45.435Z,15.97
2018-11-07T05:43:15.158Z,13.57
2018-11-07T05:45:43.888Z,14.00
2018-11-07T05:48:13.070Z,13.70
2018-11-07T05:50:41.794Z,14.90
2018-11-07T05:53:10.454Z,14.13
2018-11-07T05:55:39.643Z,18.07
2018-11-07T05:58:08.739Z,15.80
2018-11-07T06:00:37.538Z,12.87
2018-11-07T06:03:06.855Z,17.03
2018-11-07T06:05:35.465Z,12.80
2018-11-07T06:08:04.125Z,14.33
2018-11-07T06:10:32.817Z,15.57
2018-11-07T06:13:02.446Z,15.63
2018-11-07T06:15:31.078Z,14.93
2018-11-07T06:18:00.299Z,14.50
2018-11-07T06:20:28.959Z,14.10
2018-11-07T06:22:57.681Z,15.50
2018-11-07T06:25:26.487Z,13.90
2018-11-07T06:27:55.139Z,14.40
2018-11-07T06:30:24.330Z,17.47
2018-11-07T06:32:53.003Z,16.53
2018-11-07T06:35:22.094Z,19.00
2018-11-07T06:37:50.786Z,15.80
2018-11-07T06:40:19.586Z,16.93
2018-11-07T06:42:48.198Z,17.00
2018-11-07T06:45:18.255Z,19.93
2018-11-07T06:47:47.421Z,16.77
2018-11-07T06:50:17.320Z,17.73
2018-11-07T06:52:47.671Z,18.13
2018-11-07T06:55:17.072Z,16.33
2018-11-07T06:57:57.233Z,19.23
2018-11-07T07:00:26.283Z,18.60
2018-11-07T07:02:54.943Z,17.83
2018-11-07T07:05:23.622Z,17.57
2018-11-07T07:07:52.323Z,21.77
2018-11-07T07:10:21.514Z,25.33
2018-11-07T07:12:51.551Z,16.97
2018-11-07T07:15:20.998Z,18.20
2018-11-07T07:17:49.628Z,16.30
2018-11-07T07:20:20.226Z,18.13
2018-11-07T07:22:49.504Z,16.47
2018-11-07T07:25:19.014Z,18.90
2018-11-07T07:27:47.918Z,19.47
2018-11-07T07:30:19.500Z,18.20
2018-11-07T07:32:49.086Z,20.90
2018-11-07T07:35:18.572Z,16.67
2018-11-07T07:37:47.820Z,20.33
2018-11-07T07:40:16.979Z,18.50
2018-11-07T07:42:46.298Z,19.10
2018-11-07T07:45:16.415Z,19.90
2018-11-07T07:47:45.373Z,19.20
2018-11-07T07:50:15.179Z,22.13
2018-11-07T08:33:06.794Z,18.87
2018-11-07T08:35:35.390Z,21.27
2018-11-07T08:38:04.028Z,19.57
2018-11-07T08:40:33.146Z,15.40
2018-11-07T08:43:01.745Z,15.70
2018-11-07T08:45:30.364Z,20.23
2018-11-07T08:47:59.010Z,15.10
2018-11-07T08:50:27.612Z,17.33
2018-11-07T08:52:56.236Z,13.67
2018-11-07T08:55:24.843Z,16.53
2018-11-07T08:57:54.619Z,14.10
2018-11-07T09:00:24.071Z,14.70
2018-11-07T09:02:52.732Z,15.03
2018-11-07T09:05:22.124Z,15.30
2018-11-07T09:07:50.850Z,16.57
2018-11-07T09:12:57.426Z,14.87
2018-11-07T09:15:26.032Z,12.63
2018-11-07T09:17:54.642Z,15.20
2018-11-07T09:20:24.187Z,14.43
2018-11-07T09:22:52.820Z,15.00
2018-11-07T09:25:21.435Z,14.40
2018-11-07T09:27:50.071Z,14.10
2018-11-07T09:30:20.862Z,12.43
2018-11-07T09:32:49.478Z,10.80
2018-11-07T09:35:18.547Z,13.50
2018-11-07T09:37:47.178Z,11.77
2018-11-07T09:40:19.019Z,10.87
2018-11-07T09:42:48.166Z,10.43
2018-11-07T09:45:18.087Z,10.23
2018-11-07T09:47:47.297Z,9.17
2018-11-07T09:50:16.693Z,7.87
2018-11-07T09:52:45.539Z,9.47
2018-11-07T09:55:16.426Z,10.63
2018-11-07T09:57:45.318Z,7.30
2018-11-07T10:00:15.770Z,8.93
2018-11-07T10:02:44.825Z,7.70
2018-11-07T10:05:14.158Z,10.27
2018-11-07T10:07:42.886Z,11.33
2018-11-07T10:10:13.710Z,12.93
2018-11-07T10:12:42.759Z,8.93
2018-11-07T10:15:11.939Z,8.23
2018-11-07T11:53:26.440Z,13.23
2018-11-07T11:56:07.670Z,14.50
2018-11-07T11:58:48.338Z,13.50
2018-11-07T12:01:33.069Z,12.50
2018-11-07T12:04:15.221Z,12.77
2018-11-07T12:06:54.620Z,14.37
2018-11-07T12:09:35.097Z,14.70
2018-11-07T12:12:15.771Z,15.90
2018-11-07T12:14:55.414Z,14.00
2018-11-07T12:17:24.369Z,16.03
2018-11-07T12:19:52.964Z,17.20
2018-11-07T12:22:21.555Z,12.90
2018-11-07T12:24:50.194Z,15.13
2018-11-07T12:27:18.803Z,14.23
2018-11-07T12:29:47.404Z,15.63
2018-11-07T12:32:16.018Z,19.80
2018-11-07T12:34:44.626Z,16.40
2018-11-07T12:37:13.268Z,17.50
2018-11-07T12:39:41.885Z,17.10
2018-11-07T12:42:10.522Z,19.23
2018-11-07T12:44:39.148Z,26.27
2018-11-07T12:47:07.750Z,21.40
2018-11-07T12:49:36.375Z,22.23
2018-11-07T12:52:05.218Z,18.17
2018-11-07T12:54:33.839Z,18.47
2018-11-07T12:57:02.490Z,18.80
2018-11-07T12:59:31.115Z,19.23
2018-11-07T13:01:59.735Z,23.27
2018-11-07T13:04:28.344Z,19.80
2018-11-07T13:06:56.967Z,21.00
2018-11-07T13:09:25.615Z,22.00
2018-11-07T13:11:54.227Z,20.47
2018-11-07T13:14:22.858Z,21.77
2018-11-07T13:16:51.459Z,20.60
2018-11-07T13:19:20.110Z,19.20
2018-11-07T13:21:48.702Z,18.60
2018-11-07T13:24:17.313Z,20.67
2018-11-07T13:26:45.942Z,20.50
2018-11-07T13:29:14.554Z,23.00
2018-11-07T13:31:43.179Z,26.03
2018-11-07T13:34:11.783Z,25.93
2018-11-07T13:36:40.449Z,23.73
2018-11-07T13:39:11.185Z,20.57
2018-11-07T13:41:39.646Z,26.23
2018-11-07T13:44:08.289Z,20.03
2018-11-07T13:46:36.995Z,27.43
2018-11-07T13:49:06.007Z,23.77
2018-11-07T13:51:35.014Z,21.50
2018-11-07T13:54:03.647Z,21.53
2018-11-07T13:56:32.270Z,25.13
2018-11-07T13:59:00.925Z,21.23
2018-11-07T14:01:30.170Z,22.63
2018-11-07T14:03:58.807Z,25.73
2018-11-07T14:06:27.413Z,21.60
2018-11-07T14:08:56.018Z,22.47
2018-11-07T14:11:24.671Z,21.13
2018-11-07T14:13:53.390Z,21.30
2018-11-07T14:16:22.064Z,21.17
2018-11-07T14:18:50.677Z,21.60
2018-11-07T14:21:19.304Z,22.17
2018-11-07T14:23:47.935Z,20.40
2018-11-07T14:26:16.599Z,23.03
2018-11-07T14:28:45.307Z,24.90
2018-11-07T14:31:13.914Z,23.23
2018-11-07T14:33:42.536Z,24.03
2018-11-07T14:36:11.160Z,19.93
2018-11-07T14:38:39.802Z,18.60
2018-11-07T14:41:08.382Z,21.30
2018-11-07T14:43:37.010Z,22.50
2018-11-07T14:46:05.689Z,21.70
2018-11-07T14:48:34.323Z,22.50
2018-11-07T14:51:02.935Z,20.60
2018-11-07T14:53:31.582Z,22.50
2018-11-07T14:56:00.191Z,20.20
2018-11-07T14:58:28.796Z,22.20
2018-11-07T15:00:57.382Z,22.03
2018-11-07T15:03:25.986Z,24.73
2018-11-07T15:05:54.626Z,23.90
2018-11-07T15:08:23.340Z,22.20
2018-11-07T15:10:51.858Z,25.00
2018-11-07T15:13:20.450Z,21.43
2018-11-07T15:15:49.070Z,19.97
2018-11-07T15:18:17.698Z,23.07
2018-11-07T15:20:46.300Z,26.07
2018-11-07T15:23:14.907Z,24.90
2018-11-07T15:25:43.518Z,28.50
2018-11-07T15:28:12.177Z,22.97
2018-11-07T15:30:40.783Z,25.37
2018-11-07T15:33:09.387Z,26.90
2018-11-07T15:35:38.019Z,27.63
2018-11-07T15:38:06.619Z,33.07
2018-11-07T15:40:35.214Z,25.17
2018-11-07T15:43:03.866Z,32.23
2018-11-07T15:45:32.492Z,34.00
2018-11-07T15:48:01.091Z,35.63
2018-11-07T15:50:34.869Z,28.80
2018-11-07T15:53:03.519Z,29.00
2018-11-07T15:55:32.127Z,28.60
2018-11-07T15:58:00.746Z,31.97
2018-11-07T16:00:29.378Z,33.73
2018-11-07T16:03:00.970Z,31.60
2018-11-07T16:05:29.598Z,34.50
2018-11-07T16:07:58.306Z,30.57
2018-11-07T16:10:27.017Z,31.80
2018-11-07T16:12:55.555Z,36.17
2018-11-07T16:15:24.227Z,36.13
2018-11-07T16:17:52.787Z,30.17
2018-11-07T16:20:21.518Z,29.77
2018-11-07T16:22:50.456Z,33.57
2018-11-07T16:25:19.017Z,31.83
2018-11-07T16:27:47.661Z,35.20
2018-11-07T16:30:17.855Z,34.33
2018-11-07T16:32:46.451Z,33.40
2018-11-07T16:35:15.582Z,29.50
2018-11-07T16:37:44.581Z,29.60
2018-11-07T16:40:14.429Z,31.87
2018-11-07T16:42:44.143Z,31.83
2018-11-07T16:45:13.650Z,30.83
2018-11-07T16:47:42.627Z,30.10
2018-11-07T16:50:12.481Z,37.50
2018-11-07T16:52:41.186Z,31.27
2018-11-07T16:55:09.776Z,33.57
2018-11-07T16:57:38.954Z,32.73
2018-11-07T17:00:13.441Z,34.00
2018-11-07T17:02:42.660Z,32.80
2018-11-07T17:05:12.040Z,34.30
2018-11-07T17:07:41.227Z,30.03
2018-11-07T17:10:10.995Z,33.33
2018-11-07T17:12:39.604Z,30.33
2018-11-07T17:15:08.528Z,36.63
2018-11-07T17:17:38.333Z,28.47
2018-11-07T17:20:08.588Z,29.80
2018-11-07T17:22:37.206Z,34.93
2018-11-07T17:25:07.679Z,33.87
2018-11-07T17:27:36.292Z,34.57
2018-11-07T17:30:05.913Z,36.10
2018-11-07T17:32:34.518Z,35.90
2018-11-07T17:35:03.128Z,34.27
2018-11-07T17:37:31.759Z,38.93
2018-11-07T17:40:00.374Z,33.47
2018-11-07T17:42:28.981Z,35.50
2018-11-07T17:44:57.598Z,36.80
2018-11-07T17:47:26.191Z,36.47
2018-11-07T17:49:54.795Z,32.87
2018-11-07T17:52:23.413Z,35.73
2018-11-07T17:54:52.042Z,36.60
2018-11-07T17:57:20.667Z,38.30
2018-11-07T17:59:49.274Z,37.07
2018-11-07T18:02:17.923Z,38.13
2018-11-07T18:04:46.520Z,38.97
2018-11-07T18:07:15.121Z,33.93
2018-11-07T18:09:43.757Z,33.33
2018-11-07T18:12:12.351Z,36.33
2018-11-07T18:14:41.072Z,41.03
2018-11-07T18:17:09.695Z,39.50
2018-11-07T18:19:38.282Z,41.07
2018-11-07T18:22:06.940Z,44.73
2018-11-07T18:24:35.563Z,45.80
2018-11-07T18:27:04.224Z,38.00
2018-11-07T18:29:32.842Z,35.60
2018-11-07T18:32:01.471Z,39.47
2018-11-07T18:34:30.063Z,36.50
2018-11-07T18:36:58.662Z,42.93
2018-11-07T18:39:27.286Z,35.43
2018-11-07T18:41:55.887Z,31.90
2018-11-07T18:44:24.580Z,38.10
2018-11-07T18:46:53.119Z,34.87
2018-11-07T18:49:21.790Z,34.90
2018-11-07T18:51:50.423Z,32.53
2018-11-07T18:54:19.062Z,32.90
2018-11-07T18:56:47.671Z,34.80
2018-11-07T18:59:16.332Z,35.33
2018-11-07T19:01:44.949Z,32.30
2018-11-07T19:04:13.610Z,27.53
2018-11-07T19:06:42.349Z,34.20
2018-11-07T19:09:11.043Z,32.00
2018-11-07T19:11:39.718Z,32.00
2018-11-07T19:14:08.362Z,37.43
2018-11-07T19:16:36.972Z,34.07
2018-11-07T19:19:05.798Z,41.10
2018-11-07T19:21:34.466Z,30.70
2018-11-07T19:24:03.209Z,31.40
2018-11-07T19:26:31.743Z,34.73
2018-11-07T19:29:00.336Z,32.17
2018-11-07T19:31:28.948Z,30.80
2018-11-07T19:33:57.578Z,30.93
2018-11-07T19:36:26.190Z,30.63
2018-11-07T19:39:04.392Z,38.13
2018-11-07T19:41:32.983Z,34.77
2018-11-07T19:44:01.597Z,38.67
2018-11-07T19:46:30.206Z,34.73
2018-11-07T19:48:58.822Z,37.43
2018-11-07T19:51:27.437Z,39.07
2018-11-07T19:53:56.105Z,34.77
2018-11-07T19:56:24.827Z,32.53
2018-11-07T19:58:53.762Z,37.20
2018-11-07T20:01:22.380Z,37.37
2018-11-07T20:03:50.994Z,39.40
2018-11-07T20:06:19.606Z,51.30
2018-11-07T20:08:48.307Z,40.87
2018-11-07T20:11:16.911Z,35.10
2018-11-07T20:13:45.545Z,38.67
2018-11-07T20:16:14.155Z,38.40
2018-11-07T20:18:42.743Z,38.13
2018-11-07T20:21:11.354Z,37.73
2018-11-07T20:23:39.953Z,35.80
2018-11-07T20:26:08.582Z,36.70
2018-11-07T20:28:37.177Z,36.70
2018-11-07T20:31:06.067Z,37.23
2018-11-07T20:33:34.700Z,39.33
2018-11-07T20:36:03.345Z,34.27
2018-11-07T20:38:31.939Z,38.90
2018-11-07T20:41:00.560Z,34.80
2018-11-07T20:43:29.155Z,33.77
2018-11-07T20:45:57.782Z,41.43
2018-11-07T20:48:26.385Z,40.80
2018-11-07T20:50:55.008Z,44.73
2018-11-07T20:53:23.626Z,36.20
2018-11-07T20:55:52.238Z,41.40
2018-11-07T20:58:20.910Z,35.50
2018-11-07T21:00:49.543Z,35.23
2018-11-07T21:03:18.167Z,37.00
2018-11-07T21:05:46.799Z,41.90
2018-11-07T21:08:15.398Z,41.67
2018-11-07T21:10:44.025Z,42.13
2018-11-07T21:13:12.626Z,35.50
2018-11-07T21:15:41.254Z,35.10
2018-11-07T21:18:09.995Z,37.17
2018-11-07T21:20:38.605Z,33.47
2018-11-07T21:23:07.218Z,34.27
2018-11-07T21:25:35.926Z,33.97
2018-11-07T21:28:04.523Z,39.50
2018-11-07T21:30:33.155Z,34.87
2018-11-07T21:33:01.798Z,32.20
2018-11-07T21:35:30.412Z,33.90
2018-11-07T21:37:59.023Z,30.23
2018-11-07T21:40:27.617Z,32.80
2018-11-07T21:42:56.259Z,33.73
2018-11-07T21:45:24.876Z,36.43
2018-11-07T21:47:53.482Z,37.73
2018-11-07T21:50:28.767Z,34.37
2018-11-07T21:52:57.370Z,39.30
2018-11-07T21:55:26.017Z,35.47
2018-11-07T21:57:54.626Z,36.93
2018-11-07T22:00:23.227Z,36.50
2018-11-07T22:02:51.924Z,42.07
2018-11-07T22:05:20.470Z,42.00
2018-11-07T22:07:49.091Z,41.63
2018-11-07T22:10:18.609Z,43.80
2018-11-07T22:12:47.209Z,43.43
2018-11-07T22:15:15.825Z,39.37
2018-11-07T22:17:44.529Z,42.23
2018-11-07T22:20:16.705Z,38.57
2018-11-07T22:22:45.613Z,47.50
2018-11-07T22:25:14.506Z,48.03
2018-11-07T22:27:43.211Z,42.43
2018-11-07T22:30:13.718Z,41.50
2018-11-07T22:32:42.422Z,42.10
2018-11-07T22:35:13.251Z,43.50
2018-11-07T22:37:42.228Z,42.23
2018-11-07T22:40:12.775Z,35.00
2018-11-07T22:42:41.402Z,32.80
2018-11-07T22:45:11.059Z,30.27
2018-11-07T22:47:40.042Z,39.77
2018-11-07T22:50:10.490Z,34.33
2018-11-07T22:52:39.361Z,28.13
2018-11-07T22:55:08.583Z,25.53
2018-11-07T22:57:37.263Z,32.03
2018-11-07T23:00:18.039Z,27.00
2018-11-07T23:02:46.915Z,23.00
2018-11-07T23:05:15.794Z,22.30
2018-11-07T23:07:44.423Z,23.40
2018-11-07T23:10:13.142Z,26.27
2018-11-07T23:12:41.795Z,23.53
2018-11-07T23:15:10.488Z,26.33
2018-11-07T23:17:39.123Z,24.53
2018-11-07T23:20:09.110Z,24.27
2018-11-07T23:22:37.714Z,22.53
2018-11-07T23:25:06.877Z,19.90
2018-11-07T23:27:35.478Z,19.70
2018-11-07T23:30:04.443Z,18.93
2018-11-07T23:32:33.045Z,22.53
2018-11-07T23:35:01.639Z,21.03
2018-11-07T23:37:30.267Z,17.70
2018-11-07T23:39:58.873Z,16.07
2018-11-07T23:42:27.615Z,16.23
2018-11-07T23:44:56.234Z,18.40
2018-11-07T23:47:24.861Z,19.03
2018-11-07T23:49:53.475Z,20.73
2018-11-07T23:52:27.562Z,19.70
2018-11-07T23:54:56.206Z,15.83
2018-11-07T23:57:24.854Z,20.17
2018-11-07T23:59:53.405Z,16.33
